sensor_id;sensor_type;location;lat;lon;timestamp;P1;durP1;ratioP1;P2;durP2;ratioP2
10769;SDS011;5437;50.852;4.438;2023-03-31T00:00:36;10.43;;;2.35;;
10769;SDS011;5437;50.852;4.438;2023-03-31T00:03:02;6.85;;;2.70;;
10769;SDS011;5437;50.852;4.438;2023-03-31T00:05:35;8.77;;;2.55;;
10769;SDS011;5437;50.852;4.438;2023-03-31T00:08:01;7.20;;;2.30;;
10769;SDS011;5437;50.852;4.438;2023-03-31T00:10:31;9.93;;;2.13;;
10769;SDS011;5437;50.852;4.438;2023-03-31T00:12:58;9.00;;;2.72;;
10769;SDS011;5437;50.852;4.438;2023-03-31T00:15:24;11.52;;;2.60;;
10769;SDS011;5437;50.852;4.438;2023-03-31T00:17:51;9.93;;;2.88;;
10769;SDS011;5437;50.852;4.438;2023-03-31T00:20:17;9.57;;;2.90;;
10769;SDS011;5437;50.852;4.438;2023-03-31T00:22:43;11.68;;;2.50;;
10769;SDS011;5437;50.852;4.438;2023-03-31T00:25:12;9.43;;;2.50;;
10769;SDS011;5437;50.852;4.438;2023-03-31T00:27:42;9.55;;;2.80;;
10769;SDS011;5437;50.852;4.438;2023-03-31T00:30:09;8.15;;;2.60;;
10769;SDS011;5437;50.852;4.438;2023-03-31T00:32:36;6.00;;;2.00;;
10769;SDS011;5437;50.852;4.438;2023-03-31T00:35:02;6.50;;;2.10;;
10769;SDS011;5437;50.852;4.438;2023-03-31T00:37:29;10.02;;;2.58;;
10769;SDS011;5437;50.852;4.438;2023-03-31T00:39:55;6.93;;;2.42;;
10769;SDS011;5437;50.852;4.438;2023-03-31T00:42:21;7.80;;;2.67;;
10769;SDS011;5437;50.852;4.438;2023-03-31T00:50:22;11.13;;;3.45;;
10769;SDS011;5437;50.852;4.438;2023-03-31T00:52:54;10.95;;;3.35;;
10769;SDS011;5437;50.852;4.438;2023-03-31T00:55:24;13.63;;;3.42;;
10769;SDS011;5437;50.852;4.438;2023-03-31T00:57:52;10.32;;;3.17;;
10769;SDS011;5437;50.852;4.438;2023-03-31T01:00:19;10.93;;;2.72;;
10769;SDS011;5437;50.852;4.438;2023-03-31T01:02:48;12.10;;;2.88;;
10769;SDS011;5437;50.852;4.438;2023-03-31T01:05:20;11.25;;;2.72;;
10769;SDS011;5437;50.852;4.438;2023-03-31T01:07:48;10.68;;;3.03;;
10769;SDS011;5437;50.852;4.438;2023-03-31T01:10:14;10.77;;;3.08;;
10769;SDS011;5437;50.852;4.438;2023-03-31T01:12:41;9.25;;;2.70;;
10769;SDS011;5437;50.852;4.438;2023-03-31T01:15:09;10.63;;;2.67;;
10769;SDS011;5437;50.852;4.438;2023-03-31T01:17:35;10.48;;;2.50;;
10769;SDS011;5437;50.852;4.438;2023-03-31T01:27:46;11.00;;;2.67;;
10769;SDS011;5437;50.852;4.438;2023-03-31T01:30:36;11.27;;;2.42;;
10769;SDS011;5437;50.852;4.438;2023-03-31T01:41:50;6.40;;;1.70;;
10769;SDS011;5437;50.852;4.438;2023-03-31T01:44:38;7.43;;;2.42;;
10769;SDS011;5437;50.852;4.438;2023-03-31T01:46:42;5.30;;;1.90;;
10769;SDS011;5437;50.852;4.438;2023-03-31T01:51:58;8.20;;;2.08;;
10769;SDS011;5437;50.852;4.438;2023-03-31T01:54:33;5.53;;;2.08;;
10769;SDS011;5437;50.852;4.438;2023-03-31T01:59:33;5.80;;;2.00;;
10769;SDS011;5437;50.852;4.438;2023-03-31T02:02:09;8.55;;;2.30;;
10769;SDS011;5437;50.852;4.438;2023-03-31T02:04:39;6.70;;;1.80;;
10769;SDS011;5437;50.852;4.438;2023-03-31T02:07:17;5.38;;;1.90;;
10769;SDS011;5437;50.852;4.438;2023-03-31T02:09:48;5.65;;;2.22;;
10769;SDS011;5437;50.852;4.438;2023-03-31T02:12:14;5.65;;;1.95;;
10769;SDS011;5437;50.852;4.438;2023-03-31T02:14:42;5.88;;;1.90;;
10769;SDS011;5437;50.852;4.438;2023-03-31T02:17:10;7.60;;;1.80;;
10769;SDS011;5437;50.852;4.438;2023-03-31T02:19:42;9.10;;;1.98;;
10769;SDS011;5437;50.852;4.438;2023-03-31T02:22:09;5.38;;;1.80;;
10769;SDS011;5437;50.852;4.438;2023-03-31T02:24:36;6.63;;;1.70;;
10769;SDS011;5437;50.852;4.438;2023-03-31T02:27:16;5.45;;;1.63;;
10769;SDS011;5437;50.852;4.438;2023-03-31T02:29:43;4.05;;;1.55;;
10769;SDS011;5437;50.852;4.438;2023-03-31T02:34:35;4.43;;;1.60;;
10769;SDS011;5437;50.852;4.438;2023-03-31T02:37:02;5.40;;;1.80;;
10769;SDS011;5437;50.852;4.438;2023-03-31T02:39:32;6.38;;;1.67;;
10769;SDS011;5437;50.852;4.438;2023-03-31T02:41:59;6.68;;;1.63;;
10769;SDS011;5437;50.852;4.438;2023-03-31T02:44:31;6.95;;;2.05;;
10769;SDS011;5437;50.852;4.438;2023-03-31T02:46:57;6.38;;;2.00;;
10769;SDS011;5437;50.852;4.438;2023-03-31T02:49:23;6.93;;;1.48;;
10769;SDS011;5437;50.852;4.438;2023-03-31T02:59:33;3.90;;;1.45;;
10769;SDS011;5437;50.852;4.438;2023-03-31T03:17:01;9.98;;;1.95;;
10769;SDS011;5437;50.852;4.438;2023-03-31T03:19:30;8.27;;;2.40;;
10769;SDS011;5437;50.852;4.438;2023-03-31T03:21:56;7.25;;;1.83;;
10769;SDS011;5437;50.852;4.438;2023-03-31T03:24:23;5.22;;;2.00;;
10769;SDS011;5437;50.852;4.438;2023-03-31T03:26:53;8.25;;;2.42;;
10769;SDS011;5437;50.852;4.438;2023-03-31T03:29:19;4.57;;;1.73;;
10769;SDS011;5437;50.852;4.438;2023-03-31T03:31:45;7.43;;;1.85;;
10769;SDS011;5437;50.852;4.438;2023-03-31T03:34:12;6.47;;;2.05;;
10769;SDS011;5437;50.852;4.438;2023-03-31T03:36:38;5.15;;;1.90;;
10769;SDS011;5437;50.852;4.438;2023-03-31T03:39:05;6.93;;;1.83;;
10769;SDS011;5437;50.852;4.438;2023-03-31T03:41:32;6.70;;;2.10;;
10769;SDS011;5437;50.852;4.438;2023-03-31T03:43:59;5.22;;;1.88;;
10769;SDS011;5437;50.852;4.438;2023-03-31T03:46:25;7.45;;;1.73;;
10769;SDS011;5437;50.852;4.438;2023-03-31T03:48:51;5.90;;;1.58;;
10769;SDS011;5437;50.852;4.438;2023-03-31T03:51:17;6.70;;;1.98;;
10769;SDS011;5437;50.852;4.438;2023-03-31T03:53:43;3.20;;;1.20;;
10769;SDS011;5437;50.852;4.438;2023-03-31T03:56:09;2.88;;;0.88;;
10769;SDS011;5437;50.852;4.438;2023-03-31T03:58:35;0.80;;;0.60;;
10769;SDS011;5437;50.852;4.438;2023-03-31T04:01:01;1.45;;;0.68;;
10769;SDS011;5437;50.852;4.438;2023-03-31T04:03:28;1.20;;;0.52;;
10769;SDS011;5437;50.852;4.438;2023-03-31T04:05:55;1.25;;;0.70;;
10769;SDS011;5437;50.852;4.438;2023-03-31T04:08:21;0.93;;;0.60;;
10769;SDS011;5437;50.852;4.438;2023-03-31T04:10:47;0.52;;;0.50;;
10769;SDS011;5437;50.852;4.438;2023-03-31T04:13:14;0.73;;;0.35;;
10769;SDS011;5437;50.852;4.438;2023-03-31T04:15:41;1.40;;;0.40;;
10769;SDS011;5437;50.852;4.438;2023-03-31T04:18:07;2.90;;;0.60;;
10769;SDS011;5437;50.852;4.438;2023-03-31T04:20:35;1.80;;;0.60;;
10769;SDS011;5437;50.852;4.438;2023-03-31T04:23:02;1.67;;;0.80;;
10769;SDS011;5437;50.852;4.438;2023-03-31T04:25:29;2.05;;;0.73;;
10769;SDS011;5437;50.852;4.438;2023-03-31T04:27:56;2.13;;;0.95;;
10769;SDS011;5437;50.852;4.438;2023-03-31T04:30:23;3.20;;;1.00;;
10769;SDS011;5437;50.852;4.438;2023-03-31T04:32:55;3.20;;;1.02;;
10769;SDS011;5437;50.852;4.438;2023-03-31T04:35:22;4.13;;;1.10;;
10769;SDS011;5437;50.852;4.438;2023-03-31T04:37:48;4.53;;;1.30;;
10769;SDS011;5437;50.852;4.438;2023-03-31T04:40:15;5.03;;;1.55;;
10769;SDS011;5437;50.852;4.438;2023-03-31T04:42:42;4.32;;;1.42;;
10769;SDS011;5437;50.852;4.438;2023-03-31T04:45:08;3.05;;;1.52;;
10769;SDS011;5437;50.852;4.438;2023-03-31T04:47:34;8.07;;;1.88;;
10769;SDS011;5437;50.852;4.438;2023-03-31T04:50:01;4.95;;;1.58;;
10769;SDS011;5437;50.852;4.438;2023-03-31T04:52:27;11.95;;;1.92;;
10769;SDS011;5437;50.852;4.438;2023-03-31T04:54:53;7.13;;;2.00;;
10769;SDS011;5437;50.852;4.438;2023-03-31T04:57:19;5.85;;;2.05;;
10769;SDS011;5437;50.852;4.438;2023-03-31T04:59:45;8.02;;;2.40;;
10769;SDS011;5437;50.852;4.438;2023-03-31T05:02:11;8.20;;;1.90;;
10769;SDS011;5437;50.852;4.438;2023-03-31T05:04:37;7.20;;;2.10;;
10769;SDS011;5437;50.852;4.438;2023-03-31T05:07:03;7.70;;;2.40;;
10769;SDS011;5437;50.852;4.438;2023-03-31T05:09:29;9.35;;;2.28;;
10769;SDS011;5437;50.852;4.438;2023-03-31T05:11:56;7.65;;;2.13;;
10769;SDS011;5437;50.852;4.438;2023-03-31T05:14:22;10.13;;;2.20;;
10769;SDS011;5437;50.852;4.438;2023-03-31T05:16:48;10.35;;;2.42;;
10769;SDS011;5437;50.852;4.438;2023-03-31T05:19:14;6.63;;;2.65;;
10769;SDS011;5437;50.852;4.438;2023-03-31T05:21:42;10.02;;;3.03;;
10769;SDS011;5437;50.852;4.438;2023-03-31T05:24:08;8.38;;;2.30;;
10769;SDS011;5437;50.852;4.438;2023-03-31T05:26:34;9.60;;;2.35;;
10769;SDS011;5437;50.852;4.438;2023-03-31T05:29:00;8.77;;;2.45;;
10769;SDS011;5437;50.852;4.438;2023-03-31T05:31:26;7.07;;;2.55;;
10769;SDS011;5437;50.852;4.438;2023-03-31T05:33:52;10.23;;;2.80;;
10769;SDS011;5437;50.852;4.438;2023-03-31T05:36:18;12.02;;;2.90;;
10769;SDS011;5437;50.852;4.438;2023-03-31T05:38:47;6.97;;;2.60;;
10769;SDS011;5437;50.852;4.438;2023-03-31T05:41:13;9.68;;;2.63;;
10769;SDS011;5437;50.852;4.438;2023-03-31T05:43:40;10.40;;;3.30;;
10769;SDS011;5437;50.852;4.438;2023-03-31T05:46:07;8.82;;;2.50;;
10769;SDS011;5437;50.852;4.438;2023-03-31T05:48:34;8.45;;;2.53;;
10769;SDS011;5437;50.852;4.438;2023-03-31T05:51:01;11.10;;;2.78;;
10769;SDS011;5437;50.852;4.438;2023-03-31T05:53:27;9.90;;;2.60;;
10769;SDS011;5437;50.852;4.438;2023-03-31T05:56:00;7.43;;;2.50;;
10769;SDS011;5437;50.852;4.438;2023-03-31T05:58:27;9.23;;;2.40;;
10769;SDS011;5437;50.852;4.438;2023-03-31T06:01:06;10.13;;;2.70;;
10769;SDS011;5437;50.852;4.438;2023-03-31T06:03:33;8.52;;;3.10;;
10769;SDS011;5437;50.852;4.438;2023-03-31T06:05:59;9.93;;;2.45;;
10769;SDS011;5437;50.852;4.438;2023-03-31T06:08:26;9.98;;;2.38;;
10769;SDS011;5437;50.852;4.438;2023-03-31T06:10:52;9.43;;;2.78;;
10769;SDS011;5437;50.852;4.438;2023-03-31T06:13:18;10.45;;;3.08;;
10769;SDS011;5437;50.852;4.438;2023-03-31T06:15:58;11.18;;;2.70;;
10769;SDS011;5437;50.852;4.438;2023-03-31T06:18:25;11.55;;;2.88;;
10769;SDS011;5437;50.852;4.438;2023-03-31T06:20:52;9.70;;;2.85;;
10769;SDS011;5437;50.852;4.438;2023-03-31T06:23:19;10.15;;;2.92;;
10769;SDS011;5437;50.852;4.438;2023-03-31T06:25:45;8.73;;;3.03;;
10769;SDS011;5437;50.852;4.438;2023-03-31T06:28:11;10.35;;;2.63;;
10769;SDS011;5437;50.852;4.438;2023-03-31T06:30:37;8.50;;;2.67;;
10769;SDS011;5437;50.852;4.438;2023-03-31T06:33:03;14.00;;;3.17;;
10769;SDS011;5437;50.852;4.438;2023-03-31T06:35:29;10.25;;;2.80;;
10769;SDS011;5437;50.852;4.438;2023-03-31T06:37:55;8.60;;;3.08;;
10769;SDS011;5437;50.852;4.438;2023-03-31T06:40:22;12.77;;;3.05;;
10769;SDS011;5437;50.852;4.438;2023-03-31T06:42:48;14.20;;;3.20;;
10769;SDS011;5437;50.852;4.438;2023-03-31T06:45:14;10.95;;;3.10;;
10769;SDS011;5437;50.852;4.438;2023-03-31T06:47:40;10.32;;;2.83;;
10769;SDS011;5437;50.852;4.438;2023-03-31T06:50:07;13.07;;;2.92;;
10769;SDS011;5437;50.852;4.438;2023-03-31T06:52:34;9.82;;;3.00;;
10769;SDS011;5437;50.852;4.438;2023-03-31T06:55:00;16.77;;;3.83;;
10769;SDS011;5437;50.852;4.438;2023-03-31T06:57:26;11.20;;;2.92;;
10769;SDS011;5437;50.852;4.438;2023-03-31T06:59:52;10.93;;;3.08;;
10769;SDS011;5437;50.852;4.438;2023-03-31T07:02:18;10.60;;;2.50;;
10769;SDS011;5437;50.852;4.438;2023-03-31T07:04:45;10.90;;;3.28;;
10769;SDS011;5437;50.852;4.438;2023-03-31T07:07:11;9.23;;;2.70;;
10769;SDS011;5437;50.852;4.438;2023-03-31T07:09:37;10.25;;;2.72;;
10769;SDS011;5437;50.852;4.438;2023-03-31T07:12:03;13.60;;;3.08;;
10769;SDS011;5437;50.852;4.438;2023-03-31T07:14:32;11.43;;;3.20;;
10769;SDS011;5437;50.852;4.438;2023-03-31T07:16:58;12.35;;;3.33;;
10769;SDS011;5437;50.852;4.438;2023-03-31T07:19:24;8.65;;;2.85;;
10769;SDS011;5437;50.852;4.438;2023-03-31T07:21:50;9.98;;;3.38;;
10769;SDS011;5437;50.852;4.438;2023-03-31T07:24:17;12.60;;;3.30;;
10769;SDS011;5437;50.852;4.438;2023-03-31T07:26:43;9.38;;;3.20;;
10769;SDS011;5437;50.852;4.438;2023-03-31T07:29:09;16.00;;;3.30;;
10769;SDS011;5437;50.852;4.438;2023-03-31T07:31:35;11.30;;;2.85;;
10769;SDS011;5437;50.852;4.438;2023-03-31T07:34:01;12.10;;;3.08;;
10769;SDS011;5437;50.852;4.438;2023-03-31T07:36:27;10.13;;;3.03;;
10769;SDS011;5437;50.852;4.438;2023-03-31T07:38:53;11.38;;;3.10;;
10769;SDS011;5437;50.852;4.438;2023-03-31T07:41:20;11.35;;;3.45;;
10769;SDS011;5437;50.852;4.438;2023-03-31T07:43:46;8.95;;;2.88;;
10769;SDS011;5437;50.852;4.438;2023-03-31T07:48:41;14.05;;;3.50;;
10769;SDS011;5437;50.852;4.438;2023-03-31T07:51:08;13.25;;;3.22;;
10769;SDS011;5437;50.852;4.438;2023-03-31T07:53:34;10.75;;;3.17;;
10769;SDS011;5437;50.852;4.438;2023-03-31T07:56:00;12.10;;;3.40;;
10769;SDS011;5437;50.852;4.438;2023-03-31T07:58:26;12.88;;;3.70;;
10769;SDS011;5437;50.852;4.438;2023-03-31T08:00:53;18.13;;;3.60;;
10769;SDS011;5437;50.852;4.438;2023-03-31T08:03:19;10.82;;;3.60;;
10769;SDS011;5437;50.852;4.438;2023-03-31T08:05:45;12.90;;;3.28;;
10769;SDS011;5437;50.852;4.438;2023-03-31T08:08:11;11.77;;;3.42;;
10769;SDS011;5437;50.852;4.438;2023-03-31T08:10:37;13.65;;;3.47;;
10769;SDS011;5437;50.852;4.438;2023-03-31T08:13:03;12.18;;;3.50;;
10769;SDS011;5437;50.852;4.438;2023-03-31T08:15:29;12.77;;;3.85;;
10769;SDS011;5437;50.852;4.438;2023-03-31T08:17:55;10.88;;;3.33;;
10769;SDS011;5437;50.852;4.438;2023-03-31T08:20:21;17.42;;;3.97;;
10769;SDS011;5437;50.852;4.438;2023-03-31T08:22:47;9.88;;;3.60;;
10769;SDS011;5437;50.852;4.438;2023-03-31T08:25:13;11.07;;;3.50;;
10769;SDS011;5437;50.852;4.438;2023-03-31T08:27:40;12.02;;;3.63;;
10769;SDS011;5437;50.852;4.438;2023-03-31T08:30:07;14.98;;;3.90;;
10769;SDS011;5437;50.852;4.438;2023-03-31T08:32:33;12.13;;;3.17;;
10769;SDS011;5437;50.852;4.438;2023-03-31T08:35:00;8.07;;;3.15;;
10769;SDS011;5437;50.852;4.438;2023-03-31T08:37:26;11.45;;;3.45;;
10769;SDS011;5437;50.852;4.438;2023-03-31T08:39:52;11.00;;;3.00;;
10769;SDS011;5437;50.852;4.438;2023-03-31T08:45:03;9.93;;;2.90;;
10769;SDS011;5437;50.852;4.438;2023-03-31T08:47:31;10.50;;;2.95;;
10769;SDS011;5437;50.852;4.438;2023-03-31T08:50:02;11.52;;;3.40;;
10769;SDS011;5437;50.852;4.438;2023-03-31T08:52:31;10.07;;;3.10;;
10769;SDS011;5437;50.852;4.438;2023-03-31T08:55:00;10.20;;;3.05;;
10769;SDS011;5437;50.852;4.438;2023-03-31T08:57:31;9.25;;;2.83;;
10769;SDS011;5437;50.852;4.438;2023-03-31T09:00:00;10.95;;;3.10;;
10769;SDS011;5437;50.852;4.438;2023-03-31T09:15:19;9.85;;;2.85;;
10769;SDS011;5437;50.852;4.438;2023-03-31T09:17:49;10.93;;;3.05;;
10769;SDS011;5437;50.852;4.438;2023-03-31T09:20:27;11.48;;;3.17;;
10769;SDS011;5437;50.852;4.438;2023-03-31T09:23:41;14.60;;;3.33;;
10769;SDS011;5437;50.852;4.438;2023-03-31T09:25:42;12.02;;;2.92;;
10769;SDS011;5437;50.852;4.438;2023-03-31T09:28:19;8.95;;;3.13;;
10769;SDS011;5437;50.852;4.438;2023-03-31T09:30:46;11.18;;;3.10;;
10769;SDS011;5437;50.852;4.438;2023-03-31T09:35:51;10.45;;;3.63;;
10769;SDS011;5437;50.852;4.438;2023-03-31T09:38:17;11.23;;;3.03;;
10769;SDS011;5437;50.852;4.438;2023-03-31T09:40:43;15.93;;;3.72;;
10769;SDS011;5437;50.852;4.438;2023-03-31T09:43:16;13.82;;;3.40;;
10769;SDS011;5437;50.852;4.438;2023-03-31T09:45:43;15.57;;;3.90;;
10769;SDS011;5437;50.852;4.438;2023-03-31T09:48:10;17.42;;;3.75;;
10769;SDS011;5437;50.852;4.438;2023-03-31T09:51:21;12.38;;;3.25;;
10769;SDS011;5437;50.852;4.438;2023-03-31T09:53:49;10.18;;;3.17;;
10769;SDS011;5437;50.852;4.438;2023-03-31T09:56:13;14.52;;;3.38;;
10769;SDS011;5437;50.852;4.438;2023-03-31T09:58:56;15.73;;;4.13;;
10769;SDS011;5437;50.852;4.438;2023-03-31T10:01:26;17.67;;;3.95;;
10769;SDS011;5437;50.852;4.438;2023-03-31T10:03:53;14.57;;;3.72;;
10769;SDS011;5437;50.852;4.438;2023-03-31T10:06:20;16.42;;;3.92;;
10769;SDS011;5437;50.852;4.438;2023-03-31T10:11:16;14.73;;;3.90;;
10769;SDS011;5437;50.852;4.438;2023-03-31T10:13:44;17.73;;;3.80;;
10769;SDS011;5437;50.852;4.438;2023-03-31T10:16:12;15.27;;;3.58;;
10769;SDS011;5437;50.852;4.438;2023-03-31T10:18:39;17.45;;;3.83;;
10769;SDS011;5437;50.852;4.438;2023-03-31T10:21:20;14.82;;;3.78;;
10769;SDS011;5437;50.852;4.438;2023-03-31T10:23:48;14.48;;;3.85;;
10769;SDS011;5437;50.852;4.438;2023-03-31T10:26:48;15.77;;;4.10;;
10769;SDS011;5437;50.852;4.438;2023-03-31T10:29:12;12.60;;;3.67;;
10769;SDS011;5437;50.852;4.438;2023-03-31T10:31:38;9.45;;;3.40;;
10769;SDS011;5437;50.852;4.438;2023-03-31T10:34:05;13.10;;;3.25;;
10769;SDS011;5437;50.852;4.438;2023-03-31T10:36:32;14.75;;;3.40;;
10769;SDS011;5437;50.852;4.438;2023-03-31T10:38:59;16.17;;;3.67;;
10769;SDS011;5437;50.852;4.438;2023-03-31T10:41:29;12.32;;;3.42;;
10769;SDS011;5437;50.852;4.438;2023-03-31T10:43:56;13.55;;;3.35;;
10769;SDS011;5437;50.852;4.438;2023-03-31T10:46:38;12.75;;;3.28;;
10769;SDS011;5437;50.852;4.438;2023-03-31T10:49:13;13.77;;;3.53;;
10769;SDS011;5437;50.852;4.438;2023-03-31T10:51:58;12.18;;;3.33;;
10769;SDS011;5437;50.852;4.438;2023-03-31T10:54:25;11.93;;;3.22;;
10769;SDS011;5437;50.852;4.438;2023-03-31T10:56:52;16.42;;;3.53;;
10769;SDS011;5437;50.852;4.438;2023-03-31T11:05:19;9.32;;;2.92;;
10769;SDS011;5437;50.852;4.438;2023-03-31T11:15:53;13.73;;;3.30;;
10769;SDS011;5437;50.852;4.438;2023-03-31T11:21:19;13.70;;;3.75;;
10769;SDS011;5437;50.852;4.438;2023-03-31T11:26:36;8.95;;;2.90;;
10769;SDS011;5437;50.852;4.438;2023-03-31T11:31:43;9.35;;;2.97;;
10769;SDS011;5437;50.852;4.438;2023-03-31T11:41:58;7.97;;;2.75;;
10769;SDS011;5437;50.852;4.438;2023-03-31T11:44:26;6.65;;;2.22;;
10769;SDS011;5437;50.852;4.438;2023-03-31T11:46:59;7.35;;;2.58;;
10769;SDS011;5437;50.852;4.438;2023-03-31T11:51:56;9.98;;;2.40;;
10769;SDS011;5437;50.852;4.438;2023-03-31T11:54:41;10.13;;;2.80;;
10769;SDS011;5437;50.852;4.438;2023-03-31T11:57:13;7.18;;;2.42;;
10769;SDS011;5437;50.852;4.438;2023-03-31T11:59:41;7.82;;;2.10;;
10769;SDS011;5437;50.852;4.438;2023-03-31T12:05:03;9.43;;;2.70;;
10769;SDS011;5437;50.852;4.438;2023-03-31T12:07:43;11.52;;;2.53;;
10769;SDS011;5437;50.852;4.438;2023-03-31T12:10:14;6.55;;;2.20;;
10769;SDS011;5437;50.852;4.438;2023-03-31T12:12:43;9.60;;;2.15;;
10769;SDS011;5437;50.852;4.438;2023-03-31T12:15:17;8.40;;;2.47;;
10769;SDS011;5437;50.852;4.438;2023-03-31T12:17:44;12.35;;;2.88;;
10769;SDS011;5437;50.852;4.438;2023-03-31T12:20:20;9.98;;;2.78;;
10769;SDS011;5437;50.852;4.438;2023-03-31T12:22:49;8.38;;;2.60;;
10769;SDS011;5437;50.852;4.438;2023-03-31T12:25:17;9.07;;;2.58;;
10769;SDS011;5437;50.852;4.438;2023-03-31T12:27:47;7.57;;;2.30;;
10769;SDS011;5437;50.852;4.438;2023-03-31T12:33:24;9.57;;;2.42;;
10769;SDS011;5437;50.852;4.438;2023-03-31T12:41:02;6.78;;;2.08;;
10769;SDS011;5437;50.852;4.438;2023-03-31T12:43:36;6.18;;;1.90;;
10769;SDS011;5437;50.852;4.438;2023-03-31T12:54:00;5.03;;;2.05;;
10769;SDS011;5437;50.852;4.438;2023-03-31T12:59:18;5.93;;;1.35;;
10769;SDS011;5437;50.852;4.438;2023-03-31T13:04:35;4.28;;;1.42;;
10769;SDS011;5437;50.852;4.438;2023-03-31T13:07:01;4.32;;;1.55;;
10769;SDS011;5437;50.852;4.438;2023-03-31T13:09:38;4.05;;;1.42;;
10769;SDS011;5437;50.852;4.438;2023-03-31T13:12:06;4.25;;;1.30;;
10769;SDS011;5437;50.852;4.438;2023-03-31T13:14:36;3.95;;;1.00;;
10769;SDS011;5437;50.852;4.438;2023-03-31T13:19:47;3.10;;;0.85;;
10769;SDS011;5437;50.852;4.438;2023-03-31T13:27:49;3.58;;;1.00;;
10769;SDS011;5437;50.852;4.438;2023-03-31T13:35:47;3.38;;;0.98;;
10769;SDS011;5437;50.852;4.438;2023-03-31T13:38:26;4.28;;;1.00;;
10769;SDS011;5437;50.852;4.438;2023-03-31T13:40:58;3.10;;;1.05;;
10769;SDS011;5437;50.852;4.438;2023-03-31T13:48:45;2.75;;;0.90;;
10769;SDS011;5437;50.852;4.438;2023-03-31T13:53:58;1.63;;;0.90;;
10769;SDS011;5437;50.852;4.438;2023-03-31T14:06:54;1.17;;;0.60;;
10769;SDS011;5437;50.852;4.438;2023-03-31T14:09:23;1.60;;;0.73;;
10769;SDS011;5437;50.852;4.438;2023-03-31T14:11:50;1.00;;;0.68;;
10769;SDS011;5437;50.852;4.438;2023-03-31T14:14:16;3.45;;;1.00;;
10769;SDS011;5437;50.852;4.438;2023-03-31T14:16:59;1.65;;;0.90;;
10769;SDS011;5437;50.852;4.438;2023-03-31T14:22:01;1.67;;;0.60;;
10769;SDS011;5437;50.852;4.438;2023-03-31T14:35:01;0.68;;;0.68;;
10769;SDS011;5437;50.852;4.438;2023-03-31T14:37:28;1.90;;;0.50;;
10769;SDS011;5437;50.852;4.438;2023-03-31T14:39:55;2.35;;;0.70;;
10769;SDS011;5437;50.852;4.438;2023-03-31T14:42:25;1.92;;;0.70;;
10769;SDS011;5437;50.852;4.438;2023-03-31T14:44:56;0.68;;;0.50;;
10769;SDS011;5437;50.852;4.438;2023-03-31T14:47:23;1.75;;;0.60;;
10769;SDS011;5437;50.852;4.438;2023-03-31T14:50:12;2.13;;;0.80;;
10769;SDS011;5437;50.852;4.438;2023-03-31T14:52:39;1.08;;;0.60;;
10769;SDS011;5437;50.852;4.438;2023-03-31T14:55:05;0.93;;;0.60;;
10769;SDS011;5437;50.852;4.438;2023-03-31T14:57:32;1.10;;;0.50;;
10769;SDS011;5437;50.852;4.438;2023-03-31T15:00:00;0.98;;;0.70;;
10769;SDS011;5437;50.852;4.438;2023-03-31T15:02:32;0.82;;;0.70;;
10769;SDS011;5437;50.852;4.438;2023-03-31T15:05:06;1.38;;;0.93;;
10769;SDS011;5437;50.852;4.438;2023-03-31T15:07:33;0.77;;;0.70;;
10769;SDS011;5437;50.852;4.438;2023-03-31T15:10:00;1.42;;;0.70;;
10769;SDS011;5437;50.852;4.438;2023-03-31T15:12:27;2.22;;;0.80;;
10769;SDS011;5437;50.852;4.438;2023-03-31T15:14:55;1.75;;;0.70;;
10769;SDS011;5437;50.852;4.438;2023-03-31T15:17:23;1.75;;;0.65;;
10769;SDS011;5437;50.852;4.438;2023-03-31T15:19:53;1.33;;;0.70;;
10769;SDS011;5437;50.852;4.438;2023-03-31T15:22:21;1.10;;;0.70;;
10769;SDS011;5437;50.852;4.438;2023-03-31T15:24:48;2.47;;;0.75;;
10769;SDS011;5437;50.852;4.438;2023-03-31T15:27:27;1.27;;;0.63;;
10769;SDS011;5437;50.852;4.438;2023-03-31T15:29:55;1.63;;;1.00;;
10769;SDS011;5437;50.852;4.438;2023-03-31T15:32:30;1.00;;;0.70;;
10769;SDS011;5437;50.852;4.438;2023-03-31T15:34:56;3.13;;;1.00;;
10769;SDS011;5437;50.852;4.438;2023-03-31T15:37:24;1.00;;;0.90;;
10769;SDS011;5437;50.852;4.438;2023-03-31T15:39:53;2.28;;;0.80;;
10769;SDS011;5437;50.852;4.438;2023-03-31T15:42:20;1.02;;;0.50;;
10769;SDS011;5437;50.852;4.438;2023-03-31T15:44:46;1.27;;;0.73;;
10769;SDS011;5437;50.852;4.438;2023-03-31T15:47:20;2.53;;;0.85;;
10769;SDS011;5437;50.852;4.438;2023-03-31T15:49:47;1.13;;;0.70;;
10769;SDS011;5437;50.852;4.438;2023-03-31T15:52:21;2.97;;;0.80;;
10769;SDS011;5437;50.852;4.438;2023-03-31T15:54:49;1.45;;;0.80;;
10769;SDS011;5437;50.852;4.438;2023-03-31T15:57:16;3.92;;;1.40;;
10769;SDS011;5437;50.852;4.438;2023-03-31T15:59:50;3.50;;;0.93;;
10769;SDS011;5437;50.852;4.438;2023-03-31T16:02:21;2.75;;;0.90;;
10769;SDS011;5437;50.852;4.438;2023-03-31T16:04:53;3.92;;;1.40;;
10769;SDS011;5437;50.852;4.438;2023-03-31T16:07:27;3.25;;;1.17;;
10769;SDS011;5437;50.852;4.438;2023-03-31T16:09:59;3.00;;;0.98;;
10769;SDS011;5437;50.852;4.438;2023-03-31T16:14:59;2.67;;;0.98;;
10769;SDS011;5437;50.852;4.438;2023-03-31T16:19:54;4.40;;;1.45;;
10769;SDS011;5437;50.852;4.438;2023-03-31T16:22:22;5.07;;;1.45;;
10769;SDS011;5437;50.852;4.438;2023-03-31T16:24:51;5.97;;;1.73;;
10769;SDS011;5437;50.852;4.438;2023-03-31T16:27:17;4.15;;;1.63;;
10769;SDS011;5437;50.852;4.438;2023-03-31T16:29:43;5.53;;;1.60;;
10769;SDS011;5437;50.852;4.438;2023-03-31T16:34:50;6.40;;;1.58;;
10769;SDS011;5437;50.852;4.438;2023-03-31T16:37:16;3.55;;;1.42;;
10769;SDS011;5437;50.852;4.438;2023-03-31T16:39:42;4.32;;;1.33;;
10769;SDS011;5437;50.852;4.438;2023-03-31T16:42:08;5.47;;;1.45;;
10769;SDS011;5437;50.852;4.438;2023-03-31T16:44:34;7.00;;;1.58;;
10769;SDS011;5437;50.852;4.438;2023-03-31T16:47:00;5.22;;;1.48;;
10769;SDS011;5437;50.852;4.438;2023-03-31T16:49:26;4.00;;;1.40;;
10769;SDS011;5437;50.852;4.438;2023-03-31T16:51:52;7.25;;;2.00;;
10769;SDS011;5437;50.852;4.438;2023-03-31T16:54:18;5.65;;;1.83;;
10769;SDS011;5437;50.852;4.438;2023-03-31T16:56:44;6.25;;;1.60;;
10769;SDS011;5437;50.852;4.438;2023-03-31T16:59:11;3.53;;;1.23;;
10769;SDS011;5437;50.852;4.438;2023-03-31T17:01:38;4.95;;;1.27;;
10769;SDS011;5437;50.852;4.438;2023-03-31T17:04:04;4.30;;;1.15;;
10769;SDS011;5437;50.852;4.438;2023-03-31T17:06:31;5.07;;;1.50;;
10769;SDS011;5437;50.852;4.438;2023-03-31T17:08:57;4.07;;;1.50;;
10769;SDS011;5437;50.852;4.438;2023-03-31T17:11:24;5.40;;;1.70;;
10769;SDS011;5437;50.852;4.438;2023-03-31T17:13:51;4.05;;;1.30;;
10769;SDS011;5437;50.852;4.438;2023-03-31T17:16:18;5.78;;;1.50;;
10769;SDS011;5437;50.852;4.438;2023-03-31T17:18:45;5.40;;;1.42;;
10769;SDS011;5437;50.852;4.438;2023-03-31T17:21:12;4.97;;;1.35;;
10769;SDS011;5437;50.852;4.438;2023-03-31T17:23:39;3.10;;;1.30;;
10769;SDS011;5437;50.852;4.438;2023-03-31T17:26:06;2.92;;;1.40;;
10769;SDS011;5437;50.852;4.438;2023-03-31T17:28:42;5.18;;;1.40;;
10769;SDS011;5437;50.852;4.438;2023-03-31T17:31:12;4.70;;;1.50;;
10769;SDS011;5437;50.852;4.438;2023-03-31T17:33:38;4.53;;;1.45;;
10769;SDS011;5437;50.852;4.438;2023-03-31T17:36:05;3.58;;;1.30;;
10769;SDS011;5437;50.852;4.438;2023-03-31T17:38:31;5.82;;;1.80;;
10769;SDS011;5437;50.852;4.438;2023-03-31T17:41:05;6.18;;;1.77;;
10769;SDS011;5437;50.852;4.438;2023-03-31T17:43:31;5.10;;;1.45;;
10769;SDS011;5437;50.852;4.438;2023-03-31T17:46:00;2.80;;;1.50;;
10769;SDS011;5437;50.852;4.438;2023-03-31T17:48:26;6.32;;;1.95;;
10769;SDS011;5437;50.852;4.438;2023-03-31T17:50:52;7.70;;;2.42;;
10769;SDS011;5437;50.852;4.438;2023-03-31T17:53:18;7.60;;;2.30;;
10769;SDS011;5437;50.852;4.438;2023-03-31T17:55:44;6.13;;;2.03;;
10769;SDS011;5437;50.852;4.438;2023-03-31T17:58:10;8.82;;;2.40;;
10769;SDS011;5437;50.852;4.438;2023-03-31T18:00:38;6.35;;;2.15;;
10769;SDS011;5437;50.852;4.438;2023-03-31T18:03:04;6.68;;;2.03;;
10769;SDS011;5437;50.852;4.438;2023-03-31T18:05:30;7.20;;;2.00;;
10769;SDS011;5437;50.852;4.438;2023-03-31T18:07:57;9.05;;;2.75;;
10769;SDS011;5437;50.852;4.438;2023-03-31T18:10:24;11.48;;;2.63;;